Airfield :
LOGIN :

Register | Disclaimer

   EN    FR    IT 

 










Legend :    VFR   Marginal VFR   IFR   Intensive IFR   Very Intensive IFR
Visi :
Ceiling :
>= 8 km
>= 3000ft
5 to 8 km
1000 to 3000 ft
1500m to 5 km
500 to 1000 ft
800 to 1500m
200 to 500 ft
< 800m
< 200 ft
Symbols :   Thunderstorms  Fog  Heavy snow  Heavy precipitations  Wind > 20 kt
SIGMETs :     Misc.  Thunderstorms  Icing  Turbulence  Mountain Waves  Volcanic Ashes







- Airport Elevation : 1487 ft
- IATA code : MUC


EDDM - München Franz Josef Strauss

CURRENT METAR :
  • 221150Z 08016KT 9999 SCT029 BKN041 M01/M07 Q1014 BECMG 07015G25KT

EXPIRED METARs :
  • 221120Z 08017KT 9999 OVC027 M01/M07 Q1015 BECMG 07015G25KT
  • 221050Z 07010KT 9999 OVC026 M02/M07 Q1015 BECMG 07015G25KT
  • 221020Z 06012KT 9999 OVC028 M02/M07 Q1015 BECMG 07015G25KT
  • 220950Z 07012KT 9999 OVC028 M02/M07 Q1015 BECMG 07015G25KT
  • 220920Z 06012KT 030V090 9999 OVC028 M02/M07 Q1015 BECMG 07015G25KT

TAF TAF EDDM
Valid from the 22 at 12:00 until the 23 at 18:00 UTC


221100Z 2212/2318 07015G25KT 9999 BKN020
PROB30
TEMPO 2212/2215 08020G30KT
TEMPO 2216/2221 4000 -SN BKN012
BECMG 2216/2218 07012KT
BECMG 2307/2310 08015G25KT
No reported NOTAMs for that airfield.



MET'MAP, your aeronautical weather chart ! - Copyright ORBIFLY December 2007 - Disclaimer

ORBIFLY MET'MAP TEAM :

Programming & Development : Alexandra Zaïnal
Concept & Development : Baudouin d'Aumeries
Co-Development & Prog : Marc-Olivier Méhu
Technical & hardware support : Manuel Goepfert

Contact : metmap@orbifly.com




SOURCES & CREDITS :

   NOAA